sensor_id;sensor_type;location;lat;lon;timestamp;temperature;humidity
72814;DHT22;60945;48.516;-2.768;2024-01-07T00:01:02;6.40;87.20
72814;DHT22;60945;48.516;-2.768;2024-01-07T00:03:28;6.50;87.20
72814;DHT22;60945;48.516;-2.768;2024-01-07T00:05:56;6.60;87.10
72814;DHT22;60945;48.516;-2.768;2024-01-07T00:08:22;6.70;86.80
72814;DHT22;60945;48.516;-2.768;2024-01-07T00:10:50;6.70;87.40
72814;DHT22;60945;48.516;-2.768;2024-01-07T00:13:16;6.50;87.60
72814;DHT22;60945;48.516;-2.768;2024-01-07T00:15:41;6.60;87.70
72814;DHT22;60945;48.516;-2.768;2024-01-07T00:18:07;6.60;87.40
72814;DHT22;60945;48.516;-2.768;2024-01-07T00:20:32;6.60;88.40
72814;DHT22;60945;48.516;-2.768;2024-01-07T00:22:58;6.80;88.50
72814;DHT22;60945;48.516;-2.768;2024-01-07T00:25:24;6.80;88.00
72814;DHT22;60945;48.516;-2.768;2024-01-07T00:27:50;7.00;87.90
72814;DHT22;60945;48.516;-2.768;2024-01-07T00:30:17;7.00;87.30
72814;DHT22;60945;48.516;-2.768;2024-01-07T00:32:44;6.90;87.60
72814;DHT22;60945;48.516;-2.768;2024-01-07T00:35:10;7.00;88.10
72814;DHT22;60945;48.516;-2.768;2024-01-07T00:37:35;7.00;88.00
72814;DHT22;60945;48.516;-2.768;2024-01-07T00:40:01;7.10;88.00
72814;DHT22;60945;48.516;-2.768;2024-01-07T00:42:27;7.20;86.80
72814;DHT22;60945;48.516;-2.768;2024-01-07T00:44:52;7.20;87.20
72814;DHT22;60945;48.516;-2.768;2024-01-07T00:47:18;7.20;87.40
72814;DHT22;60945;48.516;-2.768;2024-01-07T00:49:44;7.30;87.10
72814;DHT22;60945;48.516;-2.768;2024-01-07T00:52:09;7.20;86.60
72814;DHT22;60945;48.516;-2.768;2024-01-07T00:54:36;7.00;87.70
72814;DHT22;60945;48.516;-2.768;2024-01-07T00:57:02;6.90;88.40
72814;DHT22;60945;48.516;-2.768;2024-01-07T00:59:29;7.00;89.20
72814;DHT22;60945;48.516;-2.768;2024-01-07T01:01:55;7.00;88.90
72814;DHT22;60945;48.516;-2.768;2024-01-07T01:04:22;7.10;88.50
72814;DHT22;60945;48.516;-2.768;2024-01-07T01:06:47;7.10;87.90
72814;DHT22;60945;48.516;-2.768;2024-01-07T01:09:13;6.90;88.40
72814;DHT22;60945;48.516;-2.768;2024-01-07T01:11:38;6.80;88.70
72814;DHT22;60945;48.516;-2.768;2024-01-07T01:14:04;6.80;89.30
72814;DHT22;60945;48.516;-2.768;2024-01-07T01:16:30;6.60;88.90
72814;DHT22;60945;48.516;-2.768;2024-01-07T01:18:55;6.60;90.10
72814;DHT22;60945;48.516;-2.768;2024-01-07T01:21:21;6.50;90.30
72814;DHT22;60945;48.516;-2.768;2024-01-07T01:23:47;6.50;90.00
72814;DHT22;60945;48.516;-2.768;2024-01-07T01:26:13;6.50;89.90
72814;DHT22;60945;48.516;-2.768;2024-01-07T01:28:38;6.50;89.70
72814;DHT22;60945;48.516;-2.768;2024-01-07T01:31:04;6.40;89.90
72814;DHT22;60945;48.516;-2.768;2024-01-07T01:33:30;6.30;90.90
72814;DHT22;60945;48.516;-2.768;2024-01-07T01:35:55;6.20;90.40
72814;DHT22;60945;48.516;-2.768;2024-01-07T01:38:21;6.20;91.20
72814;DHT22;60945;48.516;-2.768;2024-01-07T01:40:53;6.20;90.30
72814;DHT22;60945;48.516;-2.768;2024-01-07T01:43:26;6.00;90.80
72814;DHT22;60945;48.516;-2.768;2024-01-07T01:45:56;5.90;90.90
72814;DHT22;60945;48.516;-2.768;2024-01-07T01:48:23;5.90;92.40
72814;DHT22;60945;48.516;-2.768;2024-01-07T01:50:49;6.00;91.60
72814;DHT22;60945;48.516;-2.768;2024-01-07T01:53:15;6.00;91.30
72814;DHT22;60945;48.516;-2.768;2024-01-07T01:55:42;6.00;91.00
72814;DHT22;60945;48.516;-2.768;2024-01-07T01:58:13;6.00;90.70
72814;DHT22;60945;48.516;-2.768;2024-01-07T02:00:39;5.90;91.00
72814;DHT22;60945;48.516;-2.768;2024-01-07T02:03:05;5.70;91.50
72814;DHT22;60945;48.516;-2.768;2024-01-07T02:05:31;5.70;91.80
72814;DHT22;60945;48.516;-2.768;2024-01-07T02:07:58;5.70;91.70
72814;DHT22;60945;48.516;-2.768;2024-01-07T02:10:24;5.70;91.50
72814;DHT22;60945;48.516;-2.768;2024-01-07T02:12:49;5.60;91.30
72814;DHT22;60945;48.516;-2.768;2024-01-07T02:15:15;5.60;91.60
72814;DHT22;60945;48.516;-2.768;2024-01-07T02:17:41;5.60;91.50
72814;DHT22;60945;48.516;-2.768;2024-01-07T02:20:07;5.50;91.50
72814;DHT22;60945;48.516;-2.768;2024-01-07T02:22:33;5.50;91.50
72814;DHT22;60945;48.516;-2.768;2024-01-07T02:24:58;5.40;92.20
72814;DHT22;60945;48.516;-2.768;2024-01-07T02:27:24;5.50;92.40
72814;DHT22;60945;48.516;-2.768;2024-01-07T02:29:50;5.50;91.80
72814;DHT22;60945;48.516;-2.768;2024-01-07T02:32:15;5.40;91.60
72814;DHT22;60945;48.516;-2.768;2024-01-07T02:34:41;5.40;92.10
72814;DHT22;60945;48.516;-2.768;2024-01-07T02:37:06;5.40;92.60
72814;DHT22;60945;48.516;-2.768;2024-01-07T02:39:32;5.60;92.40
72814;DHT22;60945;48.516;-2.768;2024-01-07T02:41:58;5.80;91.60
72814;DHT22;60945;48.516;-2.768;2024-01-07T02:44:23;6.00;90.90
72814;DHT22;60945;48.516;-2.768;2024-01-07T02:46:49;6.10;89.80
72814;DHT22;60945;48.516;-2.768;2024-01-07T02:49:15;6.10;89.80
72814;DHT22;60945;48.516;-2.768;2024-01-07T02:51:40;6.10;90.10
72814;DHT22;60945;48.516;-2.768;2024-01-07T02:54:06;6.00;89.70
72814;DHT22;60945;48.516;-2.768;2024-01-07T02:56:32;6.20;89.70
72814;DHT22;60945;48.516;-2.768;2024-01-07T02:58:57;6.30;89.40
72814;DHT22;60945;48.516;-2.768;2024-01-07T03:01:23;6.30;88.20
72814;DHT22;60945;48.516;-2.768;2024-01-07T03:03:49;6.50;88.30
72814;DHT22;60945;48.516;-2.768;2024-01-07T03:06:15;6.70;86.30
72814;DHT22;60945;48.516;-2.768;2024-01-07T03:08:41;6.80;86.20
72814;DHT22;60945;48.516;-2.768;2024-01-07T03:11:07;6.80;86.00
72814;DHT22;60945;48.516;-2.768;2024-01-07T03:13:32;6.80;86.80
72814;DHT22;60945;48.516;-2.768;2024-01-07T03:15:59;6.90;86.70
72814;DHT22;60945;48.516;-2.768;2024-01-07T03:18:24;6.90;85.10
72814;DHT22;60945;48.516;-2.768;2024-01-07T03:20:50;6.90;85.60
72814;DHT22;60945;48.516;-2.768;2024-01-07T03:23:15;6.80;86.50
72814;DHT22;60945;48.516;-2.768;2024-01-07T03:25:41;6.80;87.00
72814;DHT22;60945;48.516;-2.768;2024-01-07T03:28:07;6.80;87.00
72814;DHT22;60945;48.516;-2.768;2024-01-07T03:30:33;6.80;87.50
72814;DHT22;60945;48.516;-2.768;2024-01-07T03:32:59;6.80;87.70
72814;DHT22;60945;48.516;-2.768;2024-01-07T03:35:24;6.80;88.40
72814;DHT22;60945;48.516;-2.768;2024-01-07T03:37:50;7.00;86.80
72814;DHT22;60945;48.516;-2.768;2024-01-07T03:40:16;7.00;87.00
72814;DHT22;60945;48.516;-2.768;2024-01-07T03:42:41;6.90;87.60
72814;DHT22;60945;48.516;-2.768;2024-01-07T03:45:07;7.10;85.60
72814;DHT22;60945;48.516;-2.768;2024-01-07T03:47:33;7.10;84.70
72814;DHT22;60945;48.516;-2.768;2024-01-07T03:49:58;7.00;85.40
72814;DHT22;60945;48.516;-2.768;2024-01-07T03:52:24;6.90;86.40
72814;DHT22;60945;48.516;-2.768;2024-01-07T03:54:49;6.80;86.50
72814;DHT22;60945;48.516;-2.768;2024-01-07T03:57:15;6.80;87.20
72814;DHT22;60945;48.516;-2.768;2024-01-07T03:59:41;6.90;87.20
72814;DHT22;60945;48.516;-2.768;2024-01-07T04:02:06;7.00;86.20
72814;DHT22;60945;48.516;-2.768;2024-01-07T04:04:32;6.80;86.60
72814;DHT22;60945;48.516;-2.768;2024-01-07T04:06:58;6.80;86.50
72814;DHT22;60945;48.516;-2.768;2024-01-07T04:09:23;6.90;83.40
72814;DHT22;60945;48.516;-2.768;2024-01-07T04:11:49;7.20;79.60
72814;DHT22;60945;48.516;-2.768;2024-01-07T04:14:15;7.40;77.10
72814;DHT22;60945;48.516;-2.768;2024-01-07T04:16:41;7.60;75.40
72814;DHT22;60945;48.516;-2.768;2024-01-07T04:19:07;7.70;75.00
72814;DHT22;60945;48.516;-2.768;2024-01-07T04:21:32;7.70;75.00
72814;DHT22;60945;48.516;-2.768;2024-01-07T04:23:58;7.60;74.30
72814;DHT22;60945;48.516;-2.768;2024-01-07T04:26:23;7.70;74.10
72814;DHT22;60945;48.516;-2.768;2024-01-07T04:28:50;7.50;75.20
72814;DHT22;60945;48.516;-2.768;2024-01-07T04:31:15;7.60;74.30
72814;DHT22;60945;48.516;-2.768;2024-01-07T04:33:41;7.70;72.70
72814;DHT22;60945;48.516;-2.768;2024-01-07T04:36:07;7.80;73.00
72814;DHT22;60945;48.516;-2.768;2024-01-07T04:38:32;7.60;72.60
72814;DHT22;60945;48.516;-2.768;2024-01-07T04:40:58;7.60;72.70
72814;DHT22;60945;48.516;-2.768;2024-01-07T04:43:24;7.50;72.20
72814;DHT22;60945;48.516;-2.768;2024-01-07T04:45:49;7.50;72.40
72814;DHT22;60945;48.516;-2.768;2024-01-07T04:48:15;7.40;72.70
72814;DHT22;60945;48.516;-2.768;2024-01-07T04:50:41;7.30;71.10
72814;DHT22;60945;48.516;-2.768;2024-01-07T04:53:09;7.30;71.20
72814;DHT22;60945;48.516;-2.768;2024-01-07T04:55:36;7.20;71.60
72814;DHT22;60945;48.516;-2.768;2024-01-07T04:58:02;7.20;72.00
72814;DHT22;60945;48.516;-2.768;2024-01-07T05:00:29;7.20;71.20
72814;DHT22;60945;48.516;-2.768;2024-01-07T05:02:55;7.30;71.10
72814;DHT22;60945;48.516;-2.768;2024-01-07T05:05:20;7.30;70.00
72814;DHT22;60945;48.516;-2.768;2024-01-07T05:07:46;7.20;69.80
72814;DHT22;60945;48.516;-2.768;2024-01-07T05:10:11;7.30;69.10
72814;DHT22;60945;48.516;-2.768;2024-01-07T05:12:37;7.20;69.80
72814;DHT22;60945;48.516;-2.768;2024-01-07T05:15:04;7.20;69.60
72814;DHT22;60945;48.516;-2.768;2024-01-07T05:17:29;7.20;70.80
72814;DHT22;60945;48.516;-2.768;2024-01-07T05:19:55;7.30;70.50
72814;DHT22;60945;48.516;-2.768;2024-01-07T05:22:21;7.20;71.10
72814;DHT22;60945;48.516;-2.768;2024-01-07T05:24:47;7.10;72.40
72814;DHT22;60945;48.516;-2.768;2024-01-07T05:27:13;7.00;70.80
72814;DHT22;60945;48.516;-2.768;2024-01-07T05:29:39;7.00;70.50
72814;DHT22;60945;48.516;-2.768;2024-01-07T05:32:05;7.00;71.00
72814;DHT22;60945;48.516;-2.768;2024-01-07T05:34:31;7.00;71.00
72814;DHT22;60945;48.516;-2.768;2024-01-07T05:36:57;7.10;70.50
72814;DHT22;60945;48.516;-2.768;2024-01-07T05:39:22;7.40;69.20
72814;DHT22;60945;48.516;-2.768;2024-01-07T05:41:48;7.50;70.00
72814;DHT22;60945;48.516;-2.768;2024-01-07T05:44:13;7.40;73.80
72814;DHT22;60945;48.516;-2.768;2024-01-07T05:46:39;7.20;75.50
72814;DHT22;60945;48.516;-2.768;2024-01-07T05:49:06;7.10;77.00
72814;DHT22;60945;48.516;-2.768;2024-01-07T05:51:31;7.10;76.80
72814;DHT22;60945;48.516;-2.768;2024-01-07T05:53:57;7.20;76.30
72814;DHT22;60945;48.516;-2.768;2024-01-07T05:56:23;7.20;76.20
72814;DHT22;60945;48.516;-2.768;2024-01-07T05:58:49;7.10;76.70
72814;DHT22;60945;48.516;-2.768;2024-01-07T06:01:23;7.00;76.30
72814;DHT22;60945;48.516;-2.768;2024-01-07T06:03:49;7.00;76.70
72814;DHT22;60945;48.516;-2.768;2024-01-07T06:06:14;6.90;76.70
72814;DHT22;60945;48.516;-2.768;2024-01-07T06:08:43;6.90;76.70
72814;DHT22;60945;48.516;-2.768;2024-01-07T06:11:09;7.10;76.20
72814;DHT22;60945;48.516;-2.768;2024-01-07T06:13:37;7.30;75.10
72814;DHT22;60945;48.516;-2.768;2024-01-07T06:16:03;7.40;74.00
72814;DHT22;60945;48.516;-2.768;2024-01-07T06:18:28;7.50;72.80
72814;DHT22;60945;48.516;-2.768;2024-01-07T06:20:54;7.40;72.40
72814;DHT22;60945;48.516;-2.768;2024-01-07T06:23:20;7.30;74.40
72814;DHT22;60945;48.516;-2.768;2024-01-07T06:25:45;7.20;75.60
72814;DHT22;60945;48.516;-2.768;2024-01-07T06:28:11;7.10;76.50
72814;DHT22;60945;48.516;-2.768;2024-01-07T06:30:36;7.00;77.50
72814;DHT22;60945;48.516;-2.768;2024-01-07T06:33:02;7.00;78.20
72814;DHT22;60945;48.516;-2.768;2024-01-07T06:35:28;6.90;78.60
72814;DHT22;60945;48.516;-2.768;2024-01-07T06:37:54;7.00;78.60
72814;DHT22;60945;48.516;-2.768;2024-01-07T06:40:19;7.10;77.00
72814;DHT22;60945;48.516;-2.768;2024-01-07T06:42:45;7.20;75.20
72814;DHT22;60945;48.516;-2.768;2024-01-07T06:45:13;7.20;73.80
72814;DHT22;60945;48.516;-2.768;2024-01-07T06:47:40;7.20;72.10
72814;DHT22;60945;48.516;-2.768;2024-01-07T06:50:06;7.30;72.40
72814;DHT22;60945;48.516;-2.768;2024-01-07T06:52:32;7.30;72.10
72814;DHT22;60945;48.516;-2.768;2024-01-07T06:54:57;7.20;71.80
72814;DHT22;60945;48.516;-2.768;2024-01-07T06:57:23;7.20;71.90
72814;DHT22;60945;48.516;-2.768;2024-01-07T06:59:49;7.20;72.50
72814;DHT22;60945;48.516;-2.768;2024-01-07T07:02:14;7.40;72.20
72814;DHT22;60945;48.516;-2.768;2024-01-07T07:04:40;7.40;72.40
72814;DHT22;60945;48.516;-2.768;2024-01-07T07:07:05;7.60;72.30
72814;DHT22;60945;48.516;-2.768;2024-01-07T07:09:31;7.60;72.60
72814;DHT22;60945;48.516;-2.768;2024-01-07T07:11:56;7.50;73.10
72814;DHT22;60945;48.516;-2.768;2024-01-07T07:14:22;7.50;72.20
72814;DHT22;60945;48.516;-2.768;2024-01-07T07:16:48;7.40;72.30
72814;DHT22;60945;48.516;-2.768;2024-01-07T07:19:13;7.50;72.60
72814;DHT22;60945;48.516;-2.768;2024-01-07T07:21:40;7.70;71.80
72814;DHT22;60945;48.516;-2.768;2024-01-07T07:24:06;7.60;73.40
72814;DHT22;60945;48.516;-2.768;2024-01-07T07:26:33;7.50;75.50
72814;DHT22;60945;48.516;-2.768;2024-01-07T07:29:01;7.60;76.20
72814;DHT22;60945;48.516;-2.768;2024-01-07T07:31:27;7.60;75.90
72814;DHT22;60945;48.516;-2.768;2024-01-07T07:33:53;7.50;75.40
72814;DHT22;60945;48.516;-2.768;2024-01-07T07:36:18;7.40;75.80
72814;DHT22;60945;48.516;-2.768;2024-01-07T07:38:44;7.50;74.90
72814;DHT22;60945;48.516;-2.768;2024-01-07T07:41:09;7.40;74.30
72814;DHT22;60945;48.516;-2.768;2024-01-07T07:43:35;7.40;74.10
72814;DHT22;60945;48.516;-2.768;2024-01-07T07:46:01;7.40;73.40
72814;DHT22;60945;48.516;-2.768;2024-01-07T07:48:28;7.40;73.30
72814;DHT22;60945;48.516;-2.768;2024-01-07T07:50:54;7.40;73.10
72814;DHT22;60945;48.516;-2.768;2024-01-07T07:53:20;7.50;73.00
72814;DHT22;60945;48.516;-2.768;2024-01-07T07:55:45;7.50;72.30
72814;DHT22;60945;48.516;-2.768;2024-01-07T07:58:11;7.50;72.30
72814;DHT22;60945;48.516;-2.768;2024-01-07T08:00:37;7.30;72.40
72814;DHT22;60945;48.516;-2.768;2024-01-07T08:03:02;7.40;72.80
72814;DHT22;60945;48.516;-2.768;2024-01-07T08:05:28;7.30;73.80
72814;DHT22;60945;48.516;-2.768;2024-01-07T08:07:54;7.10;74.70
72814;DHT22;60945;48.516;-2.768;2024-01-07T08:10:20;7.00;75.60
72814;DHT22;60945;48.516;-2.768;2024-01-07T08:12:48;7.00;75.70
72814;DHT22;60945;48.516;-2.768;2024-01-07T08:15:14;7.00;75.10
72814;DHT22;60945;48.516;-2.768;2024-01-07T08:17:40;7.10;74.40
72814;DHT22;60945;48.516;-2.768;2024-01-07T08:20:06;7.00;74.50
72814;DHT22;60945;48.516;-2.768;2024-01-07T08:22:32;7.00;74.50
72814;DHT22;60945;48.516;-2.768;2024-01-07T08:24:57;7.00;74.80
72814;DHT22;60945;48.516;-2.768;2024-01-07T08:27:23;7.00;75.00
72814;DHT22;60945;48.516;-2.768;2024-01-07T08:29:49;7.00;75.30
72814;DHT22;60945;48.516;-2.768;2024-01-07T08:32:14;7.10;75.50
72814;DHT22;60945;48.516;-2.768;2024-01-07T08:34:40;7.10;75.20
72814;DHT22;60945;48.516;-2.768;2024-01-07T08:37:07;7.20;74.90
72814;DHT22;60945;48.516;-2.768;2024-01-07T08:39:33;7.20;73.80
72814;DHT22;60945;48.516;-2.768;2024-01-07T08:41:58;7.30;73.70
72814;DHT22;60945;48.516;-2.768;2024-01-07T08:44:24;7.60;72.20
72814;DHT22;60945;48.516;-2.768;2024-01-07T08:46:50;7.60;71.70
72814;DHT22;60945;48.516;-2.768;2024-01-07T08:49:15;7.60;71.90
72814;DHT22;60945;48.516;-2.768;2024-01-07T08:51:41;7.50;71.60
72814;DHT22;60945;48.516;-2.768;2024-01-07T08:54:10;7.50;71.50
72814;DHT22;60945;48.516;-2.768;2024-01-07T08:56:35;7.50;71.60
72814;DHT22;60945;48.516;-2.768;2024-01-07T08:59:01;7.50;72.60
72814;DHT22;60945;48.516;-2.768;2024-01-07T09:01:27;7.50;73.40
72814;DHT22;60945;48.516;-2.768;2024-01-07T09:03:52;7.60;73.30
72814;DHT22;60945;48.516;-2.768;2024-01-07T09:06:18;7.60;73.70
72814;DHT22;60945;48.516;-2.768;2024-01-07T09:08:43;7.20;74.40
72814;DHT22;60945;48.516;-2.768;2024-01-07T09:11:09;7.00;74.80
72814;DHT22;60945;48.516;-2.768;2024-01-07T09:13:38;6.90;75.50
72814;DHT22;60945;48.516;-2.768;2024-01-07T09:16:04;6.90;74.90
72814;DHT22;60945;48.516;-2.768;2024-01-07T09:18:30;7.10;74.30
72814;DHT22;60945;48.516;-2.768;2024-01-07T09:20:56;7.20;72.60
72814;DHT22;60945;48.516;-2.768;2024-01-07T09:23:22;7.10;73.10
72814;DHT22;60945;48.516;-2.768;2024-01-07T09:25:48;7.20;72.70
72814;DHT22;60945;48.516;-2.768;2024-01-07T09:28:14;7.20;72.60
72814;DHT22;60945;48.516;-2.768;2024-01-07T09:30:40;7.50;71.80
72814;DHT22;60945;48.516;-2.768;2024-01-07T09:33:06;7.60;71.10
72814;DHT22;60945;48.516;-2.768;2024-01-07T09:35:32;7.70;70.60
72814;DHT22;60945;48.516;-2.768;2024-01-07T09:37:57;7.90;69.90
72814;DHT22;60945;48.516;-2.768;2024-01-07T09:40:23;7.90;69.90
72814;DHT22;60945;48.516;-2.768;2024-01-07T09:42:48;8.10;69.50
72814;DHT22;60945;48.516;-2.768;2024-01-07T09:45:15;8.10;69.90
72814;DHT22;60945;48.516;-2.768;2024-01-07T09:47:42;8.30;69.60
72814;DHT22;60945;48.516;-2.768;2024-01-07T09:50:10;8.30;70.40
72814;DHT22;60945;48.516;-2.768;2024-01-07T09:52:43;8.40;71.20
72814;DHT22;60945;48.516;-2.768;2024-01-07T09:55:09;8.60;71.00
72814;DHT22;60945;48.516;-2.768;2024-01-07T09:57:40;8.50;72.40
72814;DHT22;60945;48.516;-2.768;2024-01-07T10:00:09;8.60;71.90
72814;DHT22;60945;48.516;-2.768;2024-01-07T10:02:35;8.70;71.80
72814;DHT22;60945;48.516;-2.768;2024-01-07T10:05:01;8.80;71.40
72814;DHT22;60945;48.516;-2.768;2024-01-07T10:07:27;8.30;70.50
72814;DHT22;60945;48.516;-2.768;2024-01-07T10:09:53;8.10;73.10
72814;DHT22;60945;48.516;-2.768;2024-01-07T10:12:24;7.70;75.40
72814;DHT22;60945;48.516;-2.768;2024-01-07T10:14:50;7.40;79.70
72814;DHT22;60945;48.516;-2.768;2024-01-07T10:17:16;7.20;82.10
72814;DHT22;60945;48.516;-2.768;2024-01-07T10:19:45;7.00;80.30
72814;DHT22;60945;48.516;-2.768;2024-01-07T10:22:14;7.00;79.90
72814;DHT22;60945;48.516;-2.768;2024-01-07T10:24:42;7.00;77.60
72814;DHT22;60945;48.516;-2.768;2024-01-07T10:27:09;7.30;76.50
72814;DHT22;60945;48.516;-2.768;2024-01-07T10:29:34;7.30;75.70
72814;DHT22;60945;48.516;-2.768;2024-01-07T10:32:01;7.60;75.60
72814;DHT22;60945;48.516;-2.768;2024-01-07T10:34:34;7.80;75.60
72814;DHT22;60945;48.516;-2.768;2024-01-07T10:37:02;7.40;77.10
72814;DHT22;60945;48.516;-2.768;2024-01-07T10:39:28;7.30;78.70
72814;DHT22;60945;48.516;-2.768;2024-01-07T10:41:57;7.20;79.10
72814;DHT22;60945;48.516;-2.768;2024-01-07T10:44:31;7.30;79.20
72814;DHT22;60945;48.516;-2.768;2024-01-07T10:46:58;7.30;79.00
72814;DHT22;60945;48.516;-2.768;2024-01-07T10:49:25;7.40;78.10
72814;DHT22;60945;48.516;-2.768;2024-01-07T10:52:04;7.50;78.30
72814;DHT22;60945;48.516;-2.768;2024-01-07T10:54:30;7.30;78.00
72814;DHT22;60945;48.516;-2.768;2024-01-07T10:56:59;7.20;79.00
72814;DHT22;60945;48.516;-2.768;2024-01-07T10:59:26;7.40;78.80
72814;DHT22;60945;48.516;-2.768;2024-01-07T11:01:53;7.40;77.60
72814;DHT22;60945;48.516;-2.768;2024-01-07T11:07:19;7.60;75.60
72814;DHT22;60945;48.516;-2.768;2024-01-07T11:12:20;7.90;74.90
72814;DHT22;60945;48.516;-2.768;2024-01-07T11:14:45;7.90;74.70
72814;DHT22;60945;48.516;-2.768;2024-01-07T11:20:07;8.20;72.90
72814;DHT22;60945;48.516;-2.768;2024-01-07T11:22:36;8.00;72.40
72814;DHT22;60945;48.516;-2.768;2024-01-07T11:25:02;8.30;71.90
72814;DHT22;60945;48.516;-2.768;2024-01-07T11:27:31;8.50;70.80
72814;DHT22;60945;48.516;-2.768;2024-01-07T11:30:07;8.30;71.30
72814;DHT22;60945;48.516;-2.768;2024-01-07T11:32:34;8.00;72.60
72814;DHT22;60945;48.516;-2.768;2024-01-07T11:35:01;8.00;71.80
72814;DHT22;60945;48.516;-2.768;2024-01-07T11:37:27;8.50;71.30
72814;DHT22;60945;48.516;-2.768;2024-01-07T11:40:05;8.60;69.70
72814;DHT22;60945;48.516;-2.768;2024-01-07T11:42:32;8.50;69.70
72814;DHT22;60945;48.516;-2.768;2024-01-07T11:44:58;8.30;70.60
72814;DHT22;60945;48.516;-2.768;2024-01-07T11:47:24;8.40;70.80
72814;DHT22;60945;48.516;-2.768;2024-01-07T11:49:51;8.20;71.40
72814;DHT22;60945;48.516;-2.768;2024-01-07T11:52:17;8.30;71.90
72814;DHT22;60945;48.516;-2.768;2024-01-07T11:54:43;8.30;71.10
72814;DHT22;60945;48.516;-2.768;2024-01-07T11:57:10;8.40;71.90
72814;DHT22;60945;48.516;-2.768;2024-01-07T11:59:36;8.20;70.70
72814;DHT22;60945;48.516;-2.768;2024-01-07T12:02:03;8.00;72.80
72814;DHT22;60945;48.516;-2.768;2024-01-07T12:04:33;7.70;73.10
72814;DHT22;60945;48.516;-2.768;2024-01-07T12:07:00;7.80;73.20
72814;DHT22;60945;48.516;-2.768;2024-01-07T12:09:26;7.70;72.10
72814;DHT22;60945;48.516;-2.768;2024-01-07T12:11:52;7.80;72.00
72814;DHT22;60945;48.516;-2.768;2024-01-07T12:14:18;7.70;73.40
72814;DHT22;60945;48.516;-2.768;2024-01-07T12:16:45;7.80;72.80
72814;DHT22;60945;48.516;-2.768;2024-01-07T12:19:11;7.70;72.70
72814;DHT22;60945;48.516;-2.768;2024-01-07T12:21:37;7.40;73.40
72814;DHT22;60945;48.516;-2.768;2024-01-07T12:24:04;7.00;75.90
72814;DHT22;60945;48.516;-2.768;2024-01-07T12:26:30;7.30;77.20
72814;DHT22;60945;48.516;-2.768;2024-01-07T12:28:58;7.80;75.90
72814;DHT22;60945;48.516;-2.768;2024-01-07T12:31:31;7.80;73.90
72814;DHT22;60945;48.516;-2.768;2024-01-07T12:33:57;7.80;72.70
72814;DHT22;60945;48.516;-2.768;2024-01-07T12:36:23;7.80;72.30
72814;DHT22;60945;48.516;-2.768;2024-01-07T12:38:49;7.90;71.30
72814;DHT22;60945;48.516;-2.768;2024-01-07T12:41:17;7.90;70.70
72814;DHT22;60945;48.516;-2.768;2024-01-07T12:43:43;7.90;70.70
72814;DHT22;60945;48.516;-2.768;2024-01-07T12:46:08;7.70;69.60
72814;DHT22;60945;48.516;-2.768;2024-01-07T12:48:34;7.60;69.50
72814;DHT22;60945;48.516;-2.768;2024-01-07T12:51:00;7.40;70.40
72814;DHT22;60945;48.516;-2.768;2024-01-07T12:53:26;7.50;70.30
72814;DHT22;60945;48.516;-2.768;2024-01-07T12:55:52;7.60;71.10
72814;DHT22;60945;48.516;-2.768;2024-01-07T12:58:18;7.80;69.70
72814;DHT22;60945;48.516;-2.768;2024-01-07T13:00:44;7.80;69.20
72814;DHT22;60945;48.516;-2.768;2024-01-07T13:03:10;7.70;67.60
72814;DHT22;60945;48.516;-2.768;2024-01-07T13:05:53;7.80;67.20
72814;DHT22;60945;48.516;-2.768;2024-01-07T13:08:19;8.10;66.20
72814;DHT22;60945;48.516;-2.768;2024-01-07T13:10:47;8.30;65.60
72814;DHT22;60945;48.516;-2.768;2024-01-07T13:13:13;8.40;65.10
72814;DHT22;60945;48.516;-2.768;2024-01-07T13:15:39;8.30;64.60
72814;DHT22;60945;48.516;-2.768;2024-01-07T13:18:06;8.20;65.00
72814;DHT22;60945;48.516;-2.768;2024-01-07T13:20:32;8.10;64.20
72814;DHT22;60945;48.516;-2.768;2024-01-07T13:22:58;7.90;64.30
72814;DHT22;60945;48.516;-2.768;2024-01-07T13:25:23;7.70;65.00
72814;DHT22;60945;48.516;-2.768;2024-01-07T13:27:49;7.60;66.00
72814;DHT22;60945;48.516;-2.768;2024-01-07T13:30:14;7.60;64.80
72814;DHT22;60945;48.516;-2.768;2024-01-07T13:32:41;7.70;64.10
72814;DHT22;60945;48.516;-2.768;2024-01-07T13:35:07;7.70;63.50
72814;DHT22;60945;48.516;-2.768;2024-01-07T13:37:36;7.70;63.00
72814;DHT22;60945;48.516;-2.768;2024-01-07T13:40:02;7.70;62.90
72814;DHT22;60945;48.516;-2.768;2024-01-07T13:42:29;7.70;62.00
72814;DHT22;60945;48.516;-2.768;2024-01-07T13:44:55;7.70;61.50
72814;DHT22;60945;48.516;-2.768;2024-01-07T13:47:20;7.70;61.10
72814;DHT22;60945;48.516;-2.768;2024-01-07T13:49:46;7.80;60.50
72814;DHT22;60945;48.516;-2.768;2024-01-07T13:52:12;7.60;60.60
72814;DHT22;60945;48.516;-2.768;2024-01-07T13:54:38;7.50;60.00
72814;DHT22;60945;48.516;-2.768;2024-01-07T13:57:04;7.40;60.40
72814;DHT22;60945;48.516;-2.768;2024-01-07T13:59:29;7.50;60.40
72814;DHT22;60945;48.516;-2.768;2024-01-07T14:01:55;7.50;60.20
72814;DHT22;60945;48.516;-2.768;2024-01-07T14:04:23;7.40;60.40
72814;DHT22;60945;48.516;-2.768;2024-01-07T14:06:56;7.30;60.90
72814;DHT22;60945;48.516;-2.768;2024-01-07T14:09:22;7.40;60.90
72814;DHT22;60945;48.516;-2.768;2024-01-07T14:11:48;7.40;60.80
72814;DHT22;60945;48.516;-2.768;2024-01-07T14:14:14;7.40;59.80
72814;DHT22;60945;48.516;-2.768;2024-01-07T14:16:39;7.40;59.60
72814;DHT22;60945;48.516;-2.768;2024-01-07T14:19:06;7.40;60.20
72814;DHT22;60945;48.516;-2.768;2024-01-07T14:21:31;7.40;59.30
72814;DHT22;60945;48.516;-2.768;2024-01-07T14:23:57;7.60;59.10
72814;DHT22;60945;48.516;-2.768;2024-01-07T14:26:23;7.60;57.20
72814;DHT22;60945;48.516;-2.768;2024-01-07T14:28:50;7.50;57.30
72814;DHT22;60945;48.516;-2.768;2024-01-07T14:31:19;7.50;57.90
72814;DHT22;60945;48.516;-2.768;2024-01-07T14:33:44;7.50;57.90
72814;DHT22;60945;48.516;-2.768;2024-01-07T14:36:10;7.60;56.90
72814;DHT22;60945;48.516;-2.768;2024-01-07T14:38:43;7.50;57.10
72814;DHT22;60945;48.516;-2.768;2024-01-07T14:41:09;7.70;57.00
72814;DHT22;60945;48.516;-2.768;2024-01-07T14:43:35;8.00;56.50
72814;DHT22;60945;48.516;-2.768;2024-01-07T14:46:02;7.90;56.30
72814;DHT22;60945;48.516;-2.768;2024-01-07T14:48:28;7.60;56.30
72814;DHT22;60945;48.516;-2.768;2024-01-07T14:50:53;7.80;55.40
72814;DHT22;60945;48.516;-2.768;2024-01-07T14:53:19;8.00;54.60
72814;DHT22;60945;48.516;-2.768;2024-01-07T14:55:44;7.90;54.70
72814;DHT22;60945;48.516;-2.768;2024-01-07T14:58:10;7.90;55.00
72814;DHT22;60945;48.516;-2.768;2024-01-07T15:00:36;7.80;55.20
72814;DHT22;60945;48.516;-2.768;2024-01-07T15:03:02;7.60;56.30
72814;DHT22;60945;48.516;-2.768;2024-01-07T15:05:28;7.70;56.60
72814;DHT22;60945;48.516;-2.768;2024-01-07T15:07:53;7.70;56.70
72814;DHT22;60945;48.516;-2.768;2024-01-07T15:10:19;7.90;56.40
72814;DHT22;60945;48.516;-2.768;2024-01-07T15:12:45;7.60;57.40
72814;DHT22;60945;48.516;-2.768;2024-01-07T15:15:10;7.60;56.60
72814;DHT22;60945;48.516;-2.768;2024-01-07T15:17:37;7.60;57.00
72814;DHT22;60945;48.516;-2.768;2024-01-07T15:20:02;7.70;55.70
72814;DHT22;60945;48.516;-2.768;2024-01-07T15:22:29;7.70;55.50
72814;DHT22;60945;48.516;-2.768;2024-01-07T15:24:54;7.80;54.90
72814;DHT22;60945;48.516;-2.768;2024-01-07T15:27:20;7.70;54.60
72814;DHT22;60945;48.516;-2.768;2024-01-07T15:29:46;7.50;54.90
72814;DHT22;60945;48.516;-2.768;2024-01-07T15:32:12;7.50;54.50